sensor_id;sensor_type;location;lat;lon;timestamp;P1;durP1;ratioP1;P2;durP2;ratioP2
1479;SDS011;732;51.698;4.886;2023-09-18T00:00:55;59.67;;;41.23;;
1479;SDS011;732;51.698;4.886;2023-09-18T00:03:24;58.33;;;37.53;;
1479;SDS011;732;51.698;4.886;2023-09-18T00:05:52;52.10;;;35.90;;
1479;SDS011;732;51.698;4.886;2023-09-18T00:08:21;54.70;;;37.20;;
1479;SDS011;732;51.698;4.886;2023-09-18T00:10:50;58.50;;;37.53;;
1479;SDS011;732;51.698;4.886;2023-09-18T00:13:20;48.37;;;33.10;;
1479;SDS011;732;51.698;4.886;2023-09-18T00:15:49;65.67;;;40.37;;
1479;SDS011;732;51.698;4.886;2023-09-18T00:18:26;52.27;;;36.13;;
1479;SDS011;732;51.698;4.886;2023-09-18T00:20:54;45.70;;;33.83;;
1479;SDS011;732;51.698;4.886;2023-09-18T00:23:23;54.60;;;36.27;;
1479;SDS011;732;51.698;4.886;2023-09-18T00:25:51;49.40;;;35.97;;
1479;SDS011;732;51.698;4.886;2023-09-18T00:28:19;60.57;;;39.77;;
1479;SDS011;732;51.698;4.886;2023-09-18T00:30:49;62.83;;;40.70;;
1479;SDS011;732;51.698;4.886;2023-09-18T00:33:19;56.10;;;38.67;;
1479;SDS011;732;51.698;4.886;2023-09-18T00:35:48;71.03;;;42.70;;
1479;SDS011;732;51.698;4.886;2023-09-18T00:38:17;48.80;;;34.50;;
1479;SDS011;732;51.698;4.886;2023-09-18T00:40:46;79.77;;;44.20;;
1479;SDS011;732;51.698;4.886;2023-09-18T00:43:15;49.80;;;34.27;;
1479;SDS011;732;51.698;4.886;2023-09-18T00:45:45;77.20;;;42.27;;
1479;SDS011;732;51.698;4.886;2023-09-18T00:48:15;69.27;;;42.43;;
1479;SDS011;732;51.698;4.886;2023-09-18T00:50:45;77.73;;;44.63;;
1479;SDS011;732;51.698;4.886;2023-09-18T00:53:16;68.73;;;42.43;;
1479;SDS011;732;51.698;4.886;2023-09-18T00:55:47;56.53;;;36.40;;
1479;SDS011;732;51.698;4.886;2023-09-18T00:58:18;56.60;;;37.60;;
1479;SDS011;732;51.698;4.886;2023-09-18T01:00:46;57.60;;;40.10;;
1479;SDS011;732;51.698;4.886;2023-09-18T01:03:17;59.00;;;40.03;;
1479;SDS011;732;51.698;4.886;2023-09-18T01:05:49;48.30;;;34.63;;
1479;SDS011;732;51.698;4.886;2023-09-18T01:08:19;52.20;;;37.07;;
1479;SDS011;732;51.698;4.886;2023-09-18T01:10:48;53.47;;;37.77;;
1479;SDS011;732;51.698;4.886;2023-09-18T01:13:29;54.97;;;37.30;;
1479;SDS011;732;51.698;4.886;2023-09-18T01:16:06;50.47;;;37.03;;
1479;SDS011;732;51.698;4.886;2023-09-18T01:18:48;54.63;;;36.80;;
1479;SDS011;732;51.698;4.886;2023-09-18T01:21:19;65.63;;;42.90;;
1479;SDS011;732;51.698;4.886;2023-09-18T01:23:49;64.07;;;42.30;;
1479;SDS011;732;51.698;4.886;2023-09-18T01:26:18;62.07;;;39.50;;
1479;SDS011;732;51.698;4.886;2023-09-18T01:28:47;51.33;;;35.53;;
1479;SDS011;732;51.698;4.886;2023-09-18T01:31:17;52.43;;;37.80;;
1479;SDS011;732;51.698;4.886;2023-09-18T01:33:46;47.73;;;34.87;;
1479;SDS011;732;51.698;4.886;2023-09-18T01:36:16;50.80;;;36.00;;
1479;SDS011;732;51.698;4.886;2023-09-18T01:38:46;52.73;;;36.17;;
1479;SDS011;732;51.698;4.886;2023-09-18T01:41:18;55.63;;;36.50;;
1479;SDS011;732;51.698;4.886;2023-09-18T01:43:48;47.60;;;35.10;;
1479;SDS011;732;51.698;4.886;2023-09-18T01:46:16;53.70;;;34.33;;
1479;SDS011;732;51.698;4.886;2023-09-18T01:48:46;48.80;;;34.93;;
1479;SDS011;732;51.698;4.886;2023-09-18T01:51:15;50.93;;;34.33;;
1479;SDS011;732;51.698;4.886;2023-09-18T01:53:43;47.70;;;33.80;;
1479;SDS011;732;51.698;4.886;2023-09-18T01:56:11;49.90;;;35.10;;
1479;SDS011;732;51.698;4.886;2023-09-18T01:58:41;50.83;;;35.17;;
1479;SDS011;732;51.698;4.886;2023-09-18T02:01:10;45.43;;;34.50;;
1479;SDS011;732;51.698;4.886;2023-09-18T02:03:39;43.43;;;32.10;;
1479;SDS011;732;51.698;4.886;2023-09-18T02:06:28;44.73;;;30.63;;
1479;SDS011;732;51.698;4.886;2023-09-18T02:08:57;46.60;;;32.40;;
1479;SDS011;732;51.698;4.886;2023-09-18T02:11:27;48.33;;;30.70;;
1479;SDS011;732;51.698;4.886;2023-09-18T02:13:56;39.90;;;31.07;;
1479;SDS011;732;51.698;4.886;2023-09-18T02:16:26;37.87;;;28.97;;
1479;SDS011;732;51.698;4.886;2023-09-18T02:18:54;39.37;;;30.37;;
1479;SDS011;732;51.698;4.886;2023-09-18T02:21:23;42.17;;;31.03;;
1479;SDS011;732;51.698;4.886;2023-09-18T02:23:52;45.17;;;30.43;;
1479;SDS011;732;51.698;4.886;2023-09-18T02:26:21;44.83;;;31.33;;
1479;SDS011;732;51.698;4.886;2023-09-18T02:28:51;43.10;;;31.37;;
1479;SDS011;732;51.698;4.886;2023-09-18T02:31:22;42.10;;;30.43;;
1479;SDS011;732;51.698;4.886;2023-09-18T02:33:50;44.30;;;30.90;;
1479;SDS011;732;51.698;4.886;2023-09-18T02:36:19;41.60;;;30.03;;
1479;SDS011;732;51.698;4.886;2023-09-18T02:38:48;35.33;;;27.10;;
1479;SDS011;732;51.698;4.886;2023-09-18T02:41:17;37.40;;;28.33;;
1479;SDS011;732;51.698;4.886;2023-09-18T02:43:45;41.60;;;27.53;;
1479;SDS011;732;51.698;4.886;2023-09-18T02:46:15;38.00;;;29.07;;
1479;SDS011;732;51.698;4.886;2023-09-18T02:48:48;42.80;;;28.97;;
1479;SDS011;732;51.698;4.886;2023-09-18T02:51:17;37.03;;;26.70;;
1479;SDS011;732;51.698;4.886;2023-09-18T02:53:46;37.33;;;28.30;;
1479;SDS011;732;51.698;4.886;2023-09-18T02:56:14;38.83;;;28.57;;
1479;SDS011;732;51.698;4.886;2023-09-18T02:58:43;41.80;;;28.23;;
1479;SDS011;732;51.698;4.886;2023-09-18T03:01:11;37.47;;;27.20;;
1479;SDS011;732;51.698;4.886;2023-09-18T03:03:41;32.73;;;25.20;;
1479;SDS011;732;51.698;4.886;2023-09-18T03:06:11;28.60;;;22.47;;
1479;SDS011;732;51.698;4.886;2023-09-18T03:08:39;28.73;;;22.73;;
1479;SDS011;732;51.698;4.886;2023-09-18T03:11:11;29.70;;;22.60;;
1479;SDS011;732;51.698;4.886;2023-09-18T03:13:42;22.80;;;18.40;;
1479;SDS011;732;51.698;4.886;2023-09-18T03:16:13;21.10;;;15.37;;
1479;SDS011;732;51.698;4.886;2023-09-18T03:18:43;43.47;;;20.47;;
1479;SDS011;732;51.698;4.886;2023-09-18T03:21:13;33.60;;;16.80;;
1479;SDS011;732;51.698;4.886;2023-09-18T03:23:42;18.47;;;11.73;;
1479;SDS011;732;51.698;4.886;2023-09-18T03:26:10;20.20;;;11.97;;
1479;SDS011;732;51.698;4.886;2023-09-18T03:28:38;10.37;;;6.93;;
1479;SDS011;732;51.698;4.886;2023-09-18T03:31:09;14.43;;;6.90;;
1479;SDS011;732;51.698;4.886;2023-09-18T03:33:37;11.87;;;6.13;;
1479;SDS011;732;51.698;4.886;2023-09-18T03:36:06;6.40;;;4.37;;
1479;SDS011;732;51.698;4.886;2023-09-18T03:38:36;9.67;;;6.53;;
1479;SDS011;732;51.698;4.886;2023-09-18T03:41:06;11.13;;;5.73;;
1479;SDS011;732;51.698;4.886;2023-09-18T03:43:35;10.00;;;4.77;;
1479;SDS011;732;51.698;4.886;2023-09-18T03:46:03;10.10;;;5.60;;
1479;SDS011;732;51.698;4.886;2023-09-18T03:48:37;13.50;;;6.97;;
1479;SDS011;732;51.698;4.886;2023-09-18T03:51:06;10.53;;;6.90;;
1479;SDS011;732;51.698;4.886;2023-09-18T03:53:36;9.13;;;5.87;;
1479;SDS011;732;51.698;4.886;2023-09-18T03:56:04;10.30;;;6.50;;
1479;SDS011;732;51.698;4.886;2023-09-18T03:58:32;13.57;;;7.70;;
1479;SDS011;732;51.698;4.886;2023-09-18T04:01:02;12.43;;;7.90;;
1479;SDS011;732;51.698;4.886;2023-09-18T04:03:31;16.30;;;8.13;;
1479;SDS011;732;51.698;4.886;2023-09-18T04:05:59;15.00;;;8.73;;
1479;SDS011;732;51.698;4.886;2023-09-18T04:08:28;11.53;;;7.63;;
1479;SDS011;732;51.698;4.886;2023-09-18T04:11:00;14.33;;;9.77;;
1479;SDS011;732;51.698;4.886;2023-09-18T04:13:31;14.57;;;9.90;;
1479;SDS011;732;51.698;4.886;2023-09-18T04:16:00;15.47;;;9.80;;
1479;SDS011;732;51.698;4.886;2023-09-18T04:18:30;17.67;;;10.70;;
1479;SDS011;732;51.698;4.886;2023-09-18T04:20:59;21.30;;;12.03;;
1479;SDS011;732;51.698;4.886;2023-09-18T04:23:28;23.57;;;12.90;;
1479;SDS011;732;51.698;4.886;2023-09-18T04:25:56;21.27;;;14.07;;
1479;SDS011;732;51.698;4.886;2023-09-18T04:28:27;31.73;;;17.83;;
1479;SDS011;732;51.698;4.886;2023-09-18T04:30:56;27.17;;;16.23;;
1479;SDS011;732;51.698;4.886;2023-09-18T04:33:25;30.57;;;19.40;;
1479;SDS011;732;51.698;4.886;2023-09-18T04:35:56;37.03;;;20.63;;
1479;SDS011;732;51.698;4.886;2023-09-18T04:38:24;43.80;;;23.93;;
1479;SDS011;732;51.698;4.886;2023-09-18T04:40:57;38.10;;;21.67;;
1479;SDS011;732;51.698;4.886;2023-09-18T04:43:28;42.50;;;23.43;;
1479;SDS011;732;51.698;4.886;2023-09-18T04:45:58;35.40;;;22.60;;
1479;SDS011;732;51.698;4.886;2023-09-18T04:48:27;44.93;;;25.47;;
1479;SDS011;732;51.698;4.886;2023-09-18T04:50:56;46.87;;;25.60;;
1479;SDS011;732;51.698;4.886;2023-09-18T04:53:26;56.80;;;28.40;;
1479;SDS011;732;51.698;4.886;2023-09-18T04:55:56;67.67;;;30.77;;
1479;SDS011;732;51.698;4.886;2023-09-18T04:58:25;58.00;;;28.07;;
1479;SDS011;732;51.698;4.886;2023-09-18T05:00:55;84.20;;;31.50;;
1479;SDS011;732;51.698;4.886;2023-09-18T05:03:24;84.83;;;32.97;;
1479;SDS011;732;51.698;4.886;2023-09-18T05:05:56;51.97;;;27.43;;
1479;SDS011;732;51.698;4.886;2023-09-18T05:08:25;69.33;;;29.53;;
1479;SDS011;732;51.698;4.886;2023-09-18T05:10:53;68.10;;;30.80;;
1479;SDS011;732;51.698;4.886;2023-09-18T05:13:21;61.60;;;31.10;;
1479;SDS011;732;51.698;4.886;2023-09-18T05:15:50;41.80;;;24.50;;
1479;SDS011;732;51.698;4.886;2023-09-18T05:18:19;48.83;;;25.97;;
1479;SDS011;732;51.698;4.886;2023-09-18T05:20:48;41.10;;;23.80;;
1479;SDS011;732;51.698;4.886;2023-09-18T05:23:16;40.60;;;23.73;;
1479;SDS011;732;51.698;4.886;2023-09-18T05:25:45;30.90;;;19.10;;
1479;SDS011;732;51.698;4.886;2023-09-18T05:28:13;26.80;;;20.07;;
1479;SDS011;732;51.698;4.886;2023-09-18T05:30:42;43.93;;;23.80;;
1479;SDS011;732;51.698;4.886;2023-09-18T05:33:10;34.90;;;21.10;;
1479;SDS011;732;51.698;4.886;2023-09-18T05:35:42;35.73;;;20.50;;
1479;SDS011;732;51.698;4.886;2023-09-18T05:38:12;33.50;;;21.40;;
1479;SDS011;732;51.698;4.886;2023-09-18T05:40:41;45.57;;;25.97;;
1479;SDS011;732;51.698;4.886;2023-09-18T05:43:11;45.67;;;25.63;;
1479;SDS011;732;51.698;4.886;2023-09-18T05:45:39;35.33;;;21.50;;
1479;SDS011;732;51.698;4.886;2023-09-18T05:48:08;40.93;;;22.70;;
1479;SDS011;732;51.698;4.886;2023-09-18T05:50:36;36.83;;;22.50;;
1479;SDS011;732;51.698;4.886;2023-09-18T05:53:09;39.40;;;21.87;;
1479;SDS011;732;51.698;4.886;2023-09-18T05:55:37;30.27;;;19.73;;
1479;SDS011;732;51.698;4.886;2023-09-18T05:58:06;27.73;;;18.03;;
1479;SDS011;732;51.698;4.886;2023-09-18T06:00:35;28.80;;;18.00;;
1479;SDS011;732;51.698;4.886;2023-09-18T06:03:05;29.30;;;16.37;;
1479;SDS011;732;51.698;4.886;2023-09-18T06:05:33;22.30;;;14.23;;
1479;SDS011;732;51.698;4.886;2023-09-18T06:08:02;19.07;;;14.00;;
1479;SDS011;732;51.698;4.886;2023-09-18T06:10:33;22.53;;;15.40;;
1479;SDS011;732;51.698;4.886;2023-09-18T06:13:02;22.73;;;13.47;;
1479;SDS011;732;51.698;4.886;2023-09-18T06:15:32;18.30;;;12.43;;
1479;SDS011;732;51.698;4.886;2023-09-18T06:18:01;17.43;;;11.23;;
1479;SDS011;732;51.698;4.886;2023-09-18T06:20:31;17.73;;;9.90;;
1479;SDS011;732;51.698;4.886;2023-09-18T06:22:59;14.80;;;11.10;;
1479;SDS011;732;51.698;4.886;2023-09-18T06:25:27;16.17;;;10.23;;
1479;SDS011;732;51.698;4.886;2023-09-18T06:27:58;15.00;;;10.40;;
1479;SDS011;732;51.698;4.886;2023-09-18T06:30:29;16.20;;;10.83;;
1479;SDS011;732;51.698;4.886;2023-09-18T06:32:59;16.13;;;11.20;;
1479;SDS011;732;51.698;4.886;2023-09-18T06:35:27;13.90;;;10.00;;
1479;SDS011;732;51.698;4.886;2023-09-18T06:37:56;12.83;;;9.37;;
1479;SDS011;732;51.698;4.886;2023-09-18T06:40:26;16.57;;;11.27;;
1479;SDS011;732;51.698;4.886;2023-09-18T06:42:59;16.43;;;10.50;;
1479;SDS011;732;51.698;4.886;2023-09-18T06:45:28;13.40;;;9.87;;
1479;SDS011;732;51.698;4.886;2023-09-18T06:47:57;16.70;;;11.30;;
1479;SDS011;732;51.698;4.886;2023-09-18T06:50:26;16.77;;;9.27;;
1479;SDS011;732;51.698;4.886;2023-09-18T06:52:55;12.90;;;9.40;;
1479;SDS011;732;51.698;4.886;2023-09-18T06:55:23;13.27;;;9.90;;
1479;SDS011;732;51.698;4.886;2023-09-18T06:57:51;17.00;;;10.00;;
1479;SDS011;732;51.698;4.886;2023-09-18T07:00:21;17.10;;;11.03;;
1479;SDS011;732;51.698;4.886;2023-09-18T07:02:51;15.13;;;9.80;;
1479;SDS011;732;51.698;4.886;2023-09-18T07:05:20;15.77;;;9.17;;
1479;SDS011;732;51.698;4.886;2023-09-18T07:07:52;14.20;;;11.13;;
1479;SDS011;732;51.698;4.886;2023-09-18T07:10:20;11.80;;;9.57;;
1479;SDS011;732;51.698;4.886;2023-09-18T07:12:48;15.50;;;10.80;;
1479;SDS011;732;51.698;4.886;2023-09-18T07:15:17;13.43;;;10.00;;
1479;SDS011;732;51.698;4.886;2023-09-18T07:17:47;16.43;;;10.00;;
1479;SDS011;732;51.698;4.886;2023-09-18T07:20:16;14.67;;;11.17;;
1479;SDS011;732;51.698;4.886;2023-09-18T07:22:46;11.90;;;9.70;;
1479;SDS011;732;51.698;4.886;2023-09-18T07:25:15;15.53;;;11.10;;
1479;SDS011;732;51.698;4.886;2023-09-18T07:27:43;13.67;;;10.50;;
1479;SDS011;732;51.698;4.886;2023-09-18T07:30:12;11.60;;;9.43;;
1479;SDS011;732;51.698;4.886;2023-09-18T07:32:43;14.13;;;9.70;;
1479;SDS011;732;51.698;4.886;2023-09-18T07:35:14;12.93;;;10.70;;
1479;SDS011;732;51.698;4.886;2023-09-18T07:37:43;16.17;;;11.83;;
1479;SDS011;732;51.698;4.886;2023-09-18T07:40:13;11.40;;;10.23;;
1479;SDS011;732;51.698;4.886;2023-09-18T07:42:43;13.20;;;10.77;;
1479;SDS011;732;51.698;4.886;2023-09-18T07:45:11;13.37;;;10.60;;
1479;SDS011;732;51.698;4.886;2023-09-18T07:47:40;14.07;;;9.50;;
1479;SDS011;732;51.698;4.886;2023-09-18T07:50:08;14.00;;;8.77;;
1479;SDS011;732;51.698;4.886;2023-09-18T07:52:38;12.47;;;7.70;;
1479;SDS011;732;51.698;4.886;2023-09-18T07:55:07;11.27;;;8.10;;
1479;SDS011;732;51.698;4.886;2023-09-18T07:57:36;12.87;;;9.03;;
1479;SDS011;732;51.698;4.886;2023-09-18T08:00:05;11.37;;;8.40;;
1479;SDS011;732;51.698;4.886;2023-09-18T08:02:39;10.63;;;7.80;;
1479;SDS011;732;51.698;4.886;2023-09-18T08:05:09;9.63;;;7.37;;
1479;SDS011;732;51.698;4.886;2023-09-18T08:07:39;22.10;;;8.37;;
1479;SDS011;732;51.698;4.886;2023-09-18T08:10:08;10.67;;;8.33;;
1479;SDS011;732;51.698;4.886;2023-09-18T08:12:37;10.37;;;8.50;;
1479;SDS011;732;51.698;4.886;2023-09-18T08:15:06;12.33;;;7.97;;
1479;SDS011;732;51.698;4.886;2023-09-18T08:17:36;16.50;;;9.07;;
1479;SDS011;732;51.698;4.886;2023-09-18T08:20:05;9.47;;;6.80;;
1479;SDS011;732;51.698;4.886;2023-09-18T08:22:40;9.50;;;7.80;;
1479;SDS011;732;51.698;4.886;2023-09-18T08:25:10;12.27;;;7.93;;
1479;SDS011;732;51.698;4.886;2023-09-18T08:27:39;8.30;;;7.50;;
1479;SDS011;732;51.698;4.886;2023-09-18T08:30:10;10.60;;;7.67;;
1479;SDS011;732;51.698;4.886;2023-09-18T08:32:40;7.87;;;6.80;;
1479;SDS011;732;51.698;4.886;2023-09-18T08:35:10;10.13;;;5.73;;
1479;SDS011;732;51.698;4.886;2023-09-18T08:37:41;12.23;;;5.70;;
1479;SDS011;732;51.698;4.886;2023-09-18T08:40:10;8.33;;;5.97;;
1479;SDS011;732;51.698;4.886;2023-09-18T08:42:43;6.27;;;4.67;;
1479;SDS011;732;51.698;4.886;2023-09-18T08:45:15;12.20;;;4.70;;
1479;SDS011;732;51.698;4.886;2023-09-18T08:47:53;9.00;;;4.77;;
1479;SDS011;732;51.698;4.886;2023-09-18T08:50:22;5.27;;;4.03;;
1479;SDS011;732;51.698;4.886;2023-09-18T08:52:53;5.13;;;4.50;;
1479;SDS011;732;51.698;4.886;2023-09-18T08:55:23;6.10;;;4.60;;
1479;SDS011;732;51.698;4.886;2023-09-18T08:57:52;9.70;;;5.97;;
1479;SDS011;732;51.698;4.886;2023-09-18T09:00:22;10.10;;;5.40;;
1479;SDS011;732;51.698;4.886;2023-09-18T09:02:50;11.53;;;8.97;;
1479;SDS011;732;51.698;4.886;2023-09-18T09:05:21;11.93;;;9.13;;
1479;SDS011;732;51.698;4.886;2023-09-18T09:07:50;8.90;;;8.10;;
1479;SDS011;732;51.698;4.886;2023-09-18T09:10:20;10.53;;;9.43;;
1479;SDS011;732;51.698;4.886;2023-09-18T09:12:49;13.37;;;10.97;;
1479;SDS011;732;51.698;4.886;2023-09-18T09:15:22;12.57;;;11.47;;
1479;SDS011;732;51.698;4.886;2023-09-18T09:18:01;13.27;;;11.90;;
1479;SDS011;732;51.698;4.886;2023-09-18T09:20:32;13.73;;;12.40;;
1479;SDS011;732;51.698;4.886;2023-09-18T09:23:04;14.83;;;12.57;;
1479;SDS011;732;51.698;4.886;2023-09-18T09:25:35;15.17;;;13.67;;
1479;SDS011;732;51.698;4.886;2023-09-18T09:28:04;14.87;;;13.47;;
1479;SDS011;732;51.698;4.886;2023-09-18T09:30:35;15.87;;;12.27;;
1479;SDS011;732;51.698;4.886;2023-09-18T09:33:04;14.40;;;11.60;;
1479;SDS011;732;51.698;4.886;2023-09-18T09:35:35;12.50;;;11.30;;
1479;SDS011;732;51.698;4.886;2023-09-18T09:38:07;12.93;;;11.73;;
1479;SDS011;732;51.698;4.886;2023-09-18T09:40:40;15.00;;;12.30;;
1479;SDS011;732;51.698;4.886;2023-09-18T09:43:12;13.13;;;11.83;;
1479;SDS011;732;51.698;4.886;2023-09-18T09:45:42;13.10;;;11.80;;
1479;SDS011;732;51.698;4.886;2023-09-18T09:48:13;13.60;;;11.60;;
1479;SDS011;732;51.698;4.886;2023-09-18T09:50:45;11.17;;;9.97;;
1479;SDS011;732;51.698;4.886;2023-09-18T09:53:16;12.80;;;9.40;;
1479;SDS011;732;51.698;4.886;2023-09-18T09:55:51;11.40;;;9.57;;
1479;SDS011;732;51.698;4.886;2023-09-18T09:58:26;11.33;;;9.37;;
1479;SDS011;732;51.698;4.886;2023-09-18T10:00:58;15.50;;;9.67;;
1479;SDS011;732;51.698;4.886;2023-09-18T10:03:38;11.80;;;9.00;;
1479;SDS011;732;51.698;4.886;2023-09-18T10:06:06;11.90;;;9.30;;
1479;SDS011;732;51.698;4.886;2023-09-18T10:08:39;10.53;;;8.60;;
1479;SDS011;732;51.698;4.886;2023-09-18T10:11:09;11.83;;;8.23;;
1479;SDS011;732;51.698;4.886;2023-09-18T10:13:46;9.17;;;8.27;;
1479;SDS011;732;51.698;4.886;2023-09-18T10:16:19;11.63;;;8.67;;
1479;SDS011;732;51.698;4.886;2023-09-18T10:18:55;12.63;;;8.00;;
1479;SDS011;732;51.698;4.886;2023-09-18T10:21:35;11.87;;;8.63;;
1479;SDS011;732;51.698;4.886;2023-09-18T10:24:17;12.10;;;9.23;;
1479;SDS011;732;51.698;4.886;2023-09-18T10:26:54;11.43;;;10.30;;
1479;SDS011;732;51.698;4.886;2023-09-18T10:29:26;11.60;;;9.37;;
1479;SDS011;732;51.698;4.886;2023-09-18T10:31:56;10.27;;;9.37;;
1479;SDS011;732;51.698;4.886;2023-09-18T10:34:25;10.47;;;9.37;;
1479;SDS011;732;51.698;4.886;2023-09-18T10:36:57;10.73;;;9.60;;
1479;SDS011;732;51.698;4.886;2023-09-18T10:39:28;13.50;;;9.90;;
1479;SDS011;732;51.698;4.886;2023-09-18T10:42:00;11.63;;;10.43;;
1479;SDS011;732;51.698;4.886;2023-09-18T10:44:30;13.30;;;11.23;;
1479;SDS011;732;51.698;4.886;2023-09-18T10:46:59;9.03;;;8.10;;
1479;SDS011;732;51.698;4.886;2023-09-18T10:49:32;8.67;;;7.77;;
1479;SDS011;732;51.698;4.886;2023-09-18T10:52:01;8.67;;;7.70;;
1479;SDS011;732;51.698;4.886;2023-09-18T10:54:31;12.83;;;7.70;;
1479;SDS011;732;51.698;4.886;2023-09-18T10:57:05;10.50;;;7.80;;
1479;SDS011;732;51.698;4.886;2023-09-18T10:59:34;8.77;;;8.00;;
1479;SDS011;732;51.698;4.886;2023-09-18T11:02:13;9.00;;;7.13;;
1479;SDS011;732;51.698;4.886;2023-09-18T11:04:42;12.23;;;8.00;;
1479;SDS011;732;51.698;4.886;2023-09-18T11:07:19;12.47;;;8.67;;
1479;SDS011;732;51.698;4.886;2023-09-18T11:09:48;10.83;;;8.90;;
1479;SDS011;732;51.698;4.886;2023-09-18T11:12:17;8.63;;;7.77;;
1479;SDS011;732;51.698;4.886;2023-09-18T11:14:47;8.17;;;6.70;;
1479;SDS011;732;51.698;4.886;2023-09-18T11:17:30;9.67;;;7.17;;
1479;SDS011;732;51.698;4.886;2023-09-18T11:20:05;6.83;;;5.87;;
1479;SDS011;732;51.698;4.886;2023-09-18T11:22:48;12.93;;;6.10;;
1479;SDS011;732;51.698;4.886;2023-09-18T11:25:31;7.87;;;5.00;;
1479;SDS011;732;51.698;4.886;2023-09-18T11:28:05;9.90;;;4.77;;
1479;SDS011;732;51.698;4.886;2023-09-18T11:30:35;9.27;;;5.93;;
1479;SDS011;732;51.698;4.886;2023-09-18T11:33:06;8.83;;;6.60;;
1479;SDS011;732;51.698;4.886;2023-09-18T11:35:35;8.73;;;7.77;;
1479;SDS011;732;51.698;4.886;2023-09-18T11:38:07;10.13;;;9.03;;
1479;SDS011;732;51.698;4.886;2023-09-18T11:40:37;10.70;;;8.83;;
1479;SDS011;732;51.698;4.886;2023-09-18T11:43:19;11.47;;;8.33;;
1479;SDS011;732;51.698;4.886;2023-09-18T11:45:52;8.60;;;7.80;;
1479;SDS011;732;51.698;4.886;2023-09-18T11:48:22;10.47;;;7.60;;
1479;SDS011;732;51.698;4.886;2023-09-18T11:50:56;10.30;;;8.10;;
1479;SDS011;732;51.698;4.886;2023-09-18T11:53:26;8.03;;;7.23;;
1479;SDS011;732;51.698;4.886;2023-09-18T11:55:56;10.20;;;7.33;;
1479;SDS011;732;51.698;4.886;2023-09-18T11:58:26;8.80;;;7.17;;
1479;SDS011;732;51.698;4.886;2023-09-18T12:00:54;8.50;;;7.20;;
1479;SDS011;732;51.698;4.886;2023-09-18T12:03:23;9.60;;;6.77;;
1479;SDS011;732;51.698;4.886;2023-09-18T12:05:55;8.80;;;7.47;;
1479;SDS011;732;51.698;4.886;2023-09-18T12:08:25;8.33;;;6.97;;
1479;SDS011;732;51.698;4.886;2023-09-18T12:10:57;13.37;;;8.20;;
1479;SDS011;732;51.698;4.886;2023-09-18T12:13:27;8.87;;;7.00;;
1479;SDS011;732;51.698;4.886;2023-09-18T12:15:58;9.17;;;6.87;;
1479;SDS011;732;51.698;4.886;2023-09-18T12:18:31;7.37;;;6.53;;
1479;SDS011;732;51.698;4.886;2023-09-18T12:21:02;7.80;;;6.47;;
1479;SDS011;732;51.698;4.886;2023-09-18T12:23:37;10.20;;;5.70;;
1479;SDS011;732;51.698;4.886;2023-09-18T12:26:06;9.37;;;5.87;;
1479;SDS011;732;51.698;4.886;2023-09-18T12:28:36;7.50;;;5.60;;
1479;SDS011;732;51.698;4.886;2023-09-18T12:31:04;6.23;;;5.57;;
1479;SDS011;732;51.698;4.886;2023-09-18T12:33:34;8.27;;;5.30;;
1479;SDS011;732;51.698;4.886;2023-09-18T12:36:03;5.03;;;4.40;;
1479;SDS011;732;51.698;4.886;2023-09-18T12:38:33;5.73;;;4.50;;
1479;SDS011;732;51.698;4.886;2023-09-18T12:41:04;4.43;;;4.03;;
1479;SDS011;732;51.698;4.886;2023-09-18T12:43:34;5.23;;;4.73;;
1479;SDS011;732;51.698;4.886;2023-09-18T12:46:06;7.67;;;4.10;;
1479;SDS011;732;51.698;4.886;2023-09-18T12:48:36;4.30;;;3.87;;
1479;SDS011;732;51.698;4.886;2023-09-18T12:51:12;3.83;;;3.53;;
1479;SDS011;732;51.698;4.886;2023-09-18T12:53:42;5.73;;;3.70;;
1479;SDS011;732;51.698;4.886;2023-09-18T12:56:11;6.47;;;3.80;;
1479;SDS011;732;51.698;4.886;2023-09-18T12:58:42;7.90;;;3.00;;
1479;SDS011;732;51.698;4.886;2023-09-18T13:01:31;5.13;;;3.07;;
1479;SDS011;732;51.698;4.886;2023-09-18T13:04:00;3.80;;;3.37;;
1479;SDS011;732;51.698;4.886;2023-09-18T13:06:32;6.00;;;2.93;;
1479;SDS011;732;51.698;4.886;2023-09-18T13:09:14;5.43;;;3.00;;
1479;SDS011;732;51.698;4.886;2023-09-18T13:11:53;7.00;;;3.10;;
1479;SDS011;732;51.698;4.886;2023-09-18T13:14:24;8.67;;;3.30;;
1479;SDS011;732;51.698;4.886;2023-09-18T13:16:59;5.50;;;3.60;;
1479;SDS011;732;51.698;4.886;2023-09-18T13:19:30;6.37;;;3.37;;
1479;SDS011;732;51.698;4.886;2023-09-18T13:21:59;8.73;;;3.90;;
1479;SDS011;732;51.698;4.886;2023-09-18T13:24:28;4.97;;;3.50;;
1479;SDS011;732;51.698;4.886;2023-09-18T13:26:59;3.70;;;2.90;;
1479;SDS011;732;51.698;4.886;2023-09-18T13:29:28;6.63;;;3.50;;
1479;SDS011;732;51.698;4.886;2023-09-18T13:31:57;3.50;;;3.10;;
1479;SDS011;732;51.698;4.886;2023-09-18T13:34:27;4.50;;;3.20;;
1479;SDS011;732;51.698;4.886;2023-09-18T13:36:56;3.90;;;3.50;;
1479;SDS011;732;51.698;4.886;2023-09-18T13:39:26;3.37;;;2.73;;
1479;SDS011;732;51.698;4.886;2023-09-18T13:41:54;4.33;;;2.63;;
1479;SDS011;732;51.698;4.886;2023-09-18T13:44:23;4.30;;;3.00;;
1479;SDS011;732;51.698;4.886;2023-09-18T13:46:53;8.13;;;3.57;;
1479;SDS011;732;51.698;4.886;2023-09-18T13:49:21;5.00;;;2.93;;
1479;SDS011;732;51.698;4.886;2023-09-18T13:51:54;8.40;;;3.60;;
1479;SDS011;732;51.698;4.886;2023-09-18T13:54:23;5.13;;;2.67;;
1479;SDS011;732;51.698;4.886;2023-09-18T13:56:52;5.37;;;2.97;;
1479;SDS011;732;51.698;4.886;2023-09-18T13:59:24;4.10;;;2.90;;
1479;SDS011;732;51.698;4.886;2023-09-18T14:01:54;8.20;;;2.67;;
1479;SDS011;732;51.698;4.886;2023-09-18T14:04:22;4.17;;;2.63;;
1479;SDS011;732;51.698;4.886;2023-09-18T14:06:50;3.00;;;2.67;;
1479;SDS011;732;51.698;4.886;2023-09-18T14:09:19;3.40;;;2.67;;
1479;SDS011;732;51.698;4.886;2023-09-18T14:11:47;4.03;;;2.90;;
1479;SDS011;732;51.698;4.886;2023-09-18T14:14:16;4.77;;;2.70;;
1479;SDS011;732;51.698;4.886;2023-09-18T14:16:45;3.50;;;2.50;;
1479;SDS011;732;51.698;4.886;2023-09-18T14:19:14;4.13;;;2.80;;
1479;SDS011;732;51.698;4.886;2023-09-18T14:21:42;4.47;;;3.17;;
1479;SDS011;732;51.698;4.886;2023-09-18T14:24:11;3.87;;;2.50;;
1479;SDS011;732;51.698;4.886;2023-09-18T14:26:39;4.97;;;2.90;;
1479;SDS011;732;51.698;4.886;2023-09-18T14:29:08;7.90;;;2.67;;
1479;SDS011;732;51.698;4.886;2023-09-18T14:31:36;3.90;;;2.87;;
1479;SDS011;732;51.698;4.886;2023-09-18T14:34:05;14.10;;;3.23;;
1479;SDS011;732;51.698;4.886;2023-09-18T14:36:36;10.80;;;2.23;;
1479;SDS011;732;51.698;4.886;2023-09-18T14:39:05;8.53;;;1.80;;
1479;SDS011;732;51.698;4.886;2023-09-18T14:41:35;7.50;;;1.50;;
1479;SDS011;732;51.698;4.886;2023-09-18T14:44:04;12.93;;;1.90;;
1479;SDS011;732;51.698;4.886;2023-09-18T14:46:35;7.00;;;1.77;;
1479;SDS011;732;51.698;4.886;2023-09-18T14:49:05;6.83;;;1.57;;
1479;SDS011;732;51.698;4.886;2023-09-18T14:51:36;3.20;;;1.60;;
1479;SDS011;732;51.698;4.886;2023-09-18T14:54:04;5.80;;;2.00;;
1479;SDS011;732;51.698;4.886;2023-09-18T14:56:34;7.10;;;2.20;;
1479;SDS011;732;51.698;4.886;2023-09-18T14:59:03;4.23;;;2.00;;
1479;SDS011;732;51.698;4.886;2023-09-18T15:01:33;3.87;;;2.63;;
1479;SDS011;732;51.698;4.886;2023-09-18T15:04:02;7.00;;;3.43;;
1479;SDS011;732;51.698;4.886;2023-09-18T15:06:31;5.80;;;3.70;;
1479;SDS011;732;51.698;4.886;2023-09-18T15:09:02;5.73;;;3.73;;
1479;SDS011;732;51.698;4.886;2023-09-18T15:11:30;7.30;;;4.40;;
1479;SDS011;732;51.698;4.886;2023-09-18T15:14:01;4.70;;;3.53;;
1479;SDS011;732;51.698;4.886;2023-09-18T15:16:29;5.17;;;3.10;;
1479;SDS011;732;51.698;4.886;2023-09-18T15:18:58;4.90;;;3.47;;
1479;SDS011;732;51.698;4.886;2023-09-18T15:21:28;5.57;;;3.30;;
1479;SDS011;732;51.698;4.886;2023-09-18T15:23:57;5.87;;;4.03;;
1479;SDS011;732;51.698;4.886;2023-09-18T15:26:27;5.27;;;3.93;;
1479;SDS011;732;51.698;4.886;2023-09-18T15:28:55;5.20;;;3.63;;
1479;SDS011;732;51.698;4.886;2023-09-18T15:31:23;4.23;;;3.30;;